sensor_id;sensor_type;location;lat;lon;timestamp;temperature;humidity
42339;DHT22;27993;45.392;10.918;2022-11-15T00:00:13;9.50;99.90
42339;DHT22;27993;45.392;10.918;2022-11-15T00:02:43;9.50;99.90
42339;DHT22;27993;45.392;10.918;2022-11-15T00:05:14;9.50;99.90
42339;DHT22;27993;45.392;10.918;2022-11-15T00:07:45;9.40;99.90
42339;DHT22;27993;45.392;10.918;2022-11-15T00:10:15;9.40;99.90
42339;DHT22;27993;45.392;10.918;2022-11-15T00:12:46;9.40;99.90
42339;DHT22;27993;45.392;10.918;2022-11-15T00:15:16;9.40;99.90
42339;DHT22;27993;45.392;10.918;2022-11-15T00:17:53;9.40;99.90
42339;DHT22;27993;45.392;10.918;2022-11-15T00:20:24;9.40;99.90
42339;DHT22;27993;45.392;10.918;2022-11-15T00:22:54;9.20;99.90
42339;DHT22;27993;45.392;10.918;2022-11-15T00:25:25;9.20;99.90
42339;DHT22;27993;45.392;10.918;2022-11-15T00:27:57;9.40;99.90
42339;DHT22;27993;45.392;10.918;2022-11-15T00:30:28;9.50;99.90
42339;DHT22;27993;45.392;10.918;2022-11-15T00:33:05;9.40;99.90
42339;DHT22;27993;45.392;10.918;2022-11-15T00:35:36;9.40;99.90
42339;DHT22;27993;45.392;10.918;2022-11-15T00:38:07;9.40;99.90
42339;DHT22;27993;45.392;10.918;2022-11-15T00:40:37;9.40;99.90
42339;DHT22;27993;45.392;10.918;2022-11-15T00:43:08;9.30;99.90
42339;DHT22;27993;45.392;10.918;2022-11-15T00:45:39;9.30;99.90
42339;DHT22;27993;45.392;10.918;2022-11-15T00:48:09;9.40;99.90
42339;DHT22;27993;45.392;10.918;2022-11-15T00:50:40;9.40;99.90
42339;DHT22;27993;45.392;10.918;2022-11-15T00:53:11;9.40;99.90
42339;DHT22;27993;45.392;10.918;2022-11-15T00:55:42;9.40;99.90
42339;DHT22;27993;45.392;10.918;2022-11-15T00:58:12;9.40;99.90
42339;DHT22;27993;45.392;10.918;2022-11-15T01:04:10;9.50;99.90
42339;DHT22;27993;45.392;10.918;2022-11-15T01:06:41;9.50;99.90
42339;DHT22;27993;45.392;10.918;2022-11-15T01:09:12;9.50;99.90
42339;DHT22;27993;45.392;10.918;2022-11-15T01:11:44;9.50;99.90
42339;DHT22;27993;45.392;10.918;2022-11-15T01:14:14;9.40;99.90
42339;DHT22;27993;45.392;10.918;2022-11-15T01:16:45;9.40;99.90
42339;DHT22;27993;45.392;10.918;2022-11-15T01:19:15;9.40;99.90
42339;DHT22;27993;45.392;10.918;2022-11-15T01:21:49;9.40;99.90
42339;DHT22;27993;45.392;10.918;2022-11-15T01:24:20;9.30;99.90
42339;DHT22;27993;45.392;10.918;2022-11-15T01:26:51;9.30;99.90
42339;DHT22;27993;45.392;10.918;2022-11-15T01:29:21;9.20;99.90
42339;DHT22;27993;45.392;10.918;2022-11-15T01:31:53;9.20;99.90
42339;DHT22;27993;45.392;10.918;2022-11-15T01:34:24;9.10;99.90
42339;DHT22;27993;45.392;10.918;2022-11-15T01:36:54;9.10;99.90
42339;DHT22;27993;45.392;10.918;2022-11-15T01:39:25;9.10;99.90
42339;DHT22;27993;45.392;10.918;2022-11-15T01:41:56;9.20;99.90
42339;DHT22;27993;45.392;10.918;2022-11-15T01:47:16;9.20;99.90
42339;DHT22;27993;45.392;10.918;2022-11-15T01:50:09;9.20;99.90
42339;DHT22;27993;45.392;10.918;2022-11-15T01:52:42;9.10;99.90
42339;DHT22;27993;45.392;10.918;2022-11-15T01:55:18;9.10;99.90
42339;DHT22;27993;45.392;10.918;2022-11-15T01:57:52;9.10;99.90
42339;DHT22;27993;45.392;10.918;2022-11-15T02:00:24;9.10;99.90
42339;DHT22;27993;45.392;10.918;2022-11-15T02:02:54;9.00;99.90
42339;DHT22;27993;45.392;10.918;2022-11-15T02:05:25;8.60;99.90
42339;DHT22;27993;45.392;10.918;2022-11-15T02:07:56;8.60;99.90
42339;DHT22;27993;45.392;10.918;2022-11-15T02:10:30;8.60;99.90
42339;DHT22;27993;45.392;10.918;2022-11-15T02:13:01;8.70;99.90
42339;DHT22;27993;45.392;10.918;2022-11-15T02:15:39;8.80;99.90
42339;DHT22;27993;45.392;10.918;2022-11-15T02:18:26;8.90;99.90
42339;DHT22;27993;45.392;10.918;2022-11-15T02:32:54;8.40;99.90
42339;DHT22;27993;45.392;10.918;2022-11-15T02:41:13;8.80;99.90
42339;DHT22;27993;45.392;10.918;2022-11-15T02:44:01;8.80;99.90
42339;DHT22;27993;45.392;10.918;2022-11-15T02:46:51;8.70;99.90
42339;DHT22;27993;45.392;10.918;2022-11-15T02:49:47;8.70;99.90
42339;DHT22;27993;45.392;10.918;2022-11-15T02:52:21;8.70;99.90
42339;DHT22;27993;45.392;10.918;2022-11-15T02:54:57;8.70;99.90
42339;DHT22;27993;45.392;10.918;2022-11-15T02:58:12;8.60;99.90
42339;DHT22;27993;45.392;10.918;2022-11-15T03:00:22;8.50;99.90
42339;DHT22;27993;45.392;10.918;2022-11-15T03:11:09;8.50;99.90
42339;DHT22;27993;45.392;10.918;2022-11-15T03:21:40;8.00;99.90
42339;DHT22;27993;45.392;10.918;2022-11-15T03:24:12;8.00;99.90
42339;DHT22;27993;45.392;10.918;2022-11-15T03:26:44;8.10;99.90
42339;DHT22;27993;45.392;10.918;2022-11-15T03:29:23;8.20;99.90
42339;DHT22;27993;45.392;10.918;2022-11-15T03:32:00;8.50;99.90
42339;DHT22;27993;45.392;10.918;2022-11-15T03:34:47;8.60;99.90
42339;DHT22;27993;45.392;10.918;2022-11-15T03:37:22;8.70;99.90
42339;DHT22;27993;45.392;10.918;2022-11-15T03:39:54;8.70;99.90
42339;DHT22;27993;45.392;10.918;2022-11-15T03:42:42;8.70;99.90
42339;DHT22;27993;45.392;10.918;2022-11-15T03:45:23;8.40;99.90
42339;DHT22;27993;45.392;10.918;2022-11-15T03:48:14;7.70;99.90
42339;DHT22;27993;45.392;10.918;2022-11-15T03:50:46;7.40;99.90
42339;DHT22;27993;45.392;10.918;2022-11-15T03:53:17;7.40;99.90
42339;DHT22;27993;45.392;10.918;2022-11-15T03:55:48;7.00;99.90
42339;DHT22;27993;45.392;10.918;2022-11-15T03:58:18;6.70;99.90
42339;DHT22;27993;45.392;10.918;2022-11-15T04:00:49;6.50;99.90
42339;DHT22;27993;45.392;10.918;2022-11-15T04:03:20;6.90;99.90
42339;DHT22;27993;45.392;10.918;2022-11-15T04:05:50;7.30;99.90
42339;DHT22;27993;45.392;10.918;2022-11-15T04:08:21;7.40;99.90
42339;DHT22;27993;45.392;10.918;2022-11-15T04:10:52;7.50;99.90
42339;DHT22;27993;45.392;10.918;2022-11-15T04:13:22;7.60;99.90
42339;DHT22;27993;45.392;10.918;2022-11-15T04:15:53;7.50;99.90
42339;DHT22;27993;45.392;10.918;2022-11-15T04:18:23;7.40;99.90
42339;DHT22;27993;45.392;10.918;2022-11-15T04:20:54;7.40;99.90
42339;DHT22;27993;45.392;10.918;2022-11-15T04:23:43;7.40;99.90
42339;DHT22;27993;45.392;10.918;2022-11-15T04:26:37;7.40;99.90
42339;DHT22;27993;45.392;10.918;2022-11-15T04:29:08;7.50;99.90
42339;DHT22;27993;45.392;10.918;2022-11-15T04:32:13;7.30;99.90
42339;DHT22;27993;45.392;10.918;2022-11-15T04:34:44;7.10;99.90
42339;DHT22;27993;45.392;10.918;2022-11-15T04:37:15;7.00;99.90
42339;DHT22;27993;45.392;10.918;2022-11-15T04:39:46;7.00;99.90
42339;DHT22;27993;45.392;10.918;2022-11-15T04:42:17;7.10;99.90
42339;DHT22;27993;45.392;10.918;2022-11-15T04:44:47;7.10;99.90
42339;DHT22;27993;45.392;10.918;2022-11-15T04:47:18;6.90;99.90
42339;DHT22;27993;45.392;10.918;2022-11-15T04:49:49;6.90;99.90
42339;DHT22;27993;45.392;10.918;2022-11-15T04:52:19;7.10;99.90
42339;DHT22;27993;45.392;10.918;2022-11-15T04:54:50;7.40;99.90
42339;DHT22;27993;45.392;10.918;2022-11-15T04:57:21;7.40;99.90
42339;DHT22;27993;45.392;10.918;2022-11-15T04:59:51;7.30;99.90
42339;DHT22;27993;45.392;10.918;2022-11-15T05:02:22;7.20;99.90
42339;DHT22;27993;45.392;10.918;2022-11-15T05:04:52;7.10;99.90
42339;DHT22;27993;45.392;10.918;2022-11-15T05:07:23;7.10;99.90
42339;DHT22;27993;45.392;10.918;2022-11-15T05:09:54;7.10;99.90
42339;DHT22;27993;45.392;10.918;2022-11-15T05:12:24;7.10;99.90
42339;DHT22;27993;45.392;10.918;2022-11-15T05:14:55;7.10;99.90
42339;DHT22;27993;45.392;10.918;2022-11-15T05:17:25;7.10;99.90
42339;DHT22;27993;45.392;10.918;2022-11-15T05:19:56;7.10;99.90
42339;DHT22;27993;45.392;10.918;2022-11-15T05:22:27;7.20;99.90
42339;DHT22;27993;45.392;10.918;2022-11-15T05:24:58;7.20;99.90
42339;DHT22;27993;45.392;10.918;2022-11-15T05:27:28;7.10;99.90
42339;DHT22;27993;45.392;10.918;2022-11-15T05:29:59;6.90;99.90
42339;DHT22;27993;45.392;10.918;2022-11-15T05:32:29;6.70;99.90
42339;DHT22;27993;45.392;10.918;2022-11-15T05:35:00;6.50;99.90
42339;DHT22;27993;45.392;10.918;2022-11-15T05:37:31;6.50;99.90
42339;DHT22;27993;45.392;10.918;2022-11-15T05:40:02;6.60;99.90
42339;DHT22;27993;45.392;10.918;2022-11-15T05:42:33;6.60;99.90
42339;DHT22;27993;45.392;10.918;2022-11-15T05:45:05;6.50;99.90
42339;DHT22;27993;45.392;10.918;2022-11-15T05:47:38;6.70;99.90
42339;DHT22;27993;45.392;10.918;2022-11-15T05:50:12;6.70;99.90
42339;DHT22;27993;45.392;10.918;2022-11-15T05:52:45;6.50;99.90
42339;DHT22;27993;45.392;10.918;2022-11-15T05:55:16;6.50;99.90
42339;DHT22;27993;45.392;10.918;2022-11-15T05:57:47;6.60;99.90
42339;DHT22;27993;45.392;10.918;2022-11-15T06:00:18;6.80;99.90
42339;DHT22;27993;45.392;10.918;2022-11-15T06:02:48;6.80;99.90
42339;DHT22;27993;45.392;10.918;2022-11-15T06:05:19;6.80;99.90
42339;DHT22;27993;45.392;10.918;2022-11-15T06:07:49;7.00;99.90
42339;DHT22;27993;45.392;10.918;2022-11-15T06:10:20;6.90;99.90
42339;DHT22;27993;45.392;10.918;2022-11-15T06:13:02;6.70;99.90
42339;DHT22;27993;45.392;10.918;2022-11-15T06:15:33;6.40;99.90
42339;DHT22;27993;45.392;10.918;2022-11-15T06:18:07;5.10;99.90
42339;DHT22;27993;45.392;10.918;2022-11-15T06:20:37;4.80;99.90
42339;DHT22;27993;45.392;10.918;2022-11-15T06:23:08;4.80;99.90
42339;DHT22;27993;45.392;10.918;2022-11-15T06:25:38;5.10;99.90
42339;DHT22;27993;45.392;10.918;2022-11-15T06:28:09;6.70;99.90
42339;DHT22;27993;45.392;10.918;2022-11-15T06:30:40;6.70;99.90
42339;DHT22;27993;45.392;10.918;2022-11-15T06:33:10;7.30;99.90
42339;DHT22;27993;45.392;10.918;2022-11-15T06:35:41;7.60;99.90
42339;DHT22;27993;45.392;10.918;2022-11-15T06:38:12;6.70;99.90
42339;DHT22;27993;45.392;10.918;2022-11-15T06:40:42;6.50;99.90
42339;DHT22;27993;45.392;10.918;2022-11-15T06:43:13;6.50;99.90
42339;DHT22;27993;45.392;10.918;2022-11-15T06:45:44;6.40;99.90
42339;DHT22;27993;45.392;10.918;2022-11-15T06:48:15;6.40;99.90
42339;DHT22;27993;45.392;10.918;2022-11-15T06:50:53;6.90;99.90
42339;DHT22;27993;45.392;10.918;2022-11-15T06:53:24;6.50;99.90
42339;DHT22;27993;45.392;10.918;2022-11-15T06:56:02;6.40;99.90
42339;DHT22;27993;45.392;10.918;2022-11-15T06:58:33;6.40;99.90
42339;DHT22;27993;45.392;10.918;2022-11-15T07:01:09;6.50;99.90
42339;DHT22;27993;45.392;10.918;2022-11-15T07:03:42;6.30;99.90
42339;DHT22;27993;45.392;10.918;2022-11-15T07:06:12;6.50;99.90
42339;DHT22;27993;45.392;10.918;2022-11-15T07:08:43;6.40;99.90
42339;DHT22;27993;45.392;10.918;2022-11-15T07:11:14;6.30;99.90
42339;DHT22;27993;45.392;10.918;2022-11-15T07:13:44;6.50;99.90
42339;DHT22;27993;45.392;10.918;2022-11-15T07:16:15;6.50;99.90
42339;DHT22;27993;45.392;10.918;2022-11-15T07:18:46;6.50;99.90
42339;DHT22;27993;45.392;10.918;2022-11-15T07:21:16;6.60;99.90
42339;DHT22;27993;45.392;10.918;2022-11-15T07:23:47;6.70;99.90
42339;DHT22;27993;45.392;10.918;2022-11-15T07:26:17;6.80;99.90
42339;DHT22;27993;45.392;10.918;2022-11-15T07:28:48;7.10;99.90
42339;DHT22;27993;45.392;10.918;2022-11-15T07:31:19;7.10;99.90
42339;DHT22;27993;45.392;10.918;2022-11-15T07:33:49;7.20;99.90
42339;DHT22;27993;45.392;10.918;2022-11-15T07:36:20;7.30;99.90
42339;DHT22;27993;45.392;10.918;2022-11-15T07:38:50;7.30;99.90
42339;DHT22;27993;45.392;10.918;2022-11-15T07:41:21;7.40;99.90
42339;DHT22;27993;45.392;10.918;2022-11-15T07:43:52;7.30;99.90
42339;DHT22;27993;45.392;10.918;2022-11-15T07:46:23;7.10;99.90
42339;DHT22;27993;45.392;10.918;2022-11-15T07:48:53;7.20;99.90
42339;DHT22;27993;45.392;10.918;2022-11-15T07:51:24;7.30;99.90
42339;DHT22;27993;45.392;10.918;2022-11-15T07:53:55;7.30;99.90
42339;DHT22;27993;45.392;10.918;2022-11-15T07:56:25;7.50;99.90
42339;DHT22;27993;45.392;10.918;2022-11-15T07:58:56;7.40;99.90
42339;DHT22;27993;45.392;10.918;2022-11-15T08:01:27;7.40;99.90
42339;DHT22;27993;45.392;10.918;2022-11-15T08:03:58;7.40;99.90
42339;DHT22;27993;45.392;10.918;2022-11-15T08:06:29;7.40;99.90
42339;DHT22;27993;45.392;10.918;2022-11-15T08:09:00;7.40;99.90
42339;DHT22;27993;45.392;10.918;2022-11-15T08:11:31;7.30;99.90
42339;DHT22;27993;45.392;10.918;2022-11-15T08:14:01;7.20;99.90
42339;DHT22;27993;45.392;10.918;2022-11-15T08:16:32;7.20;99.90
42339;DHT22;27993;45.392;10.918;2022-11-15T08:19:02;7.30;99.90
42339;DHT22;27993;45.392;10.918;2022-11-15T08:21:33;7.40;99.90
42339;DHT22;27993;45.392;10.918;2022-11-15T08:24:04;7.40;99.90
42339;DHT22;27993;45.392;10.918;2022-11-15T08:26:35;7.40;99.90
42339;DHT22;27993;45.392;10.918;2022-11-15T08:29:06;7.40;99.90
42339;DHT22;27993;45.392;10.918;2022-11-15T08:31:39;7.30;99.90
42339;DHT22;27993;45.392;10.918;2022-11-15T08:34:09;7.30;99.90
42339;DHT22;27993;45.392;10.918;2022-11-15T08:36:40;7.40;99.90
42339;DHT22;27993;45.392;10.918;2022-11-15T08:39:11;7.40;99.90
42339;DHT22;27993;45.392;10.918;2022-11-15T08:41:43;7.40;99.90
42339;DHT22;27993;45.392;10.918;2022-11-15T08:44:14;7.50;99.90
42339;DHT22;27993;45.392;10.918;2022-11-15T08:46:46;7.50;99.90
42339;DHT22;27993;45.392;10.918;2022-11-15T08:49:17;7.50;99.90
42339;DHT22;27993;45.392;10.918;2022-11-15T08:51:47;7.50;99.90
42339;DHT22;27993;45.392;10.918;2022-11-15T08:54:21;7.70;99.90
42339;DHT22;27993;45.392;10.918;2022-11-15T08:56:51;7.80;99.90
42339;DHT22;27993;45.392;10.918;2022-11-15T08:59:22;7.70;99.90
42339;DHT22;27993;45.392;10.918;2022-11-15T09:01:53;7.80;99.90
42339;DHT22;27993;45.392;10.918;2022-11-15T09:04:27;8.00;99.90
42339;DHT22;27993;45.392;10.918;2022-11-15T09:06:57;8.00;99.90
42339;DHT22;27993;45.392;10.918;2022-11-15T09:09:28;8.00;99.90
42339;DHT22;27993;45.392;10.918;2022-11-15T09:11:59;8.10;99.90
42339;DHT22;27993;45.392;10.918;2022-11-15T09:14:30;8.10;99.90
42339;DHT22;27993;45.392;10.918;2022-11-15T09:17:00;8.10;99.90
42339;DHT22;27993;45.392;10.918;2022-11-15T09:19:31;8.10;99.90
42339;DHT22;27993;45.392;10.918;2022-11-15T09:22:05;8.20;99.90
42339;DHT22;27993;45.392;10.918;2022-11-15T09:24:36;8.30;99.90
42339;DHT22;27993;45.392;10.918;2022-11-15T09:27:07;8.30;99.90
42339;DHT22;27993;45.392;10.918;2022-11-15T09:29:37;8.20;99.90
42339;DHT22;27993;45.392;10.918;2022-11-15T09:32:08;8.30;99.90
42339;DHT22;27993;45.392;10.918;2022-11-15T09:34:39;8.30;99.90
42339;DHT22;27993;45.392;10.918;2022-11-15T09:37:10;8.30;99.90
42339;DHT22;27993;45.392;10.918;2022-11-15T09:39:40;8.20;99.90
42339;DHT22;27993;45.392;10.918;2022-11-15T09:42:44;8.30;99.90
42339;DHT22;27993;45.392;10.918;2022-11-15T09:45:49;8.30;99.90
42339;DHT22;27993;45.392;10.918;2022-11-15T09:48:31;8.30;99.90
42339;DHT22;27993;45.392;10.918;2022-11-15T09:51:09;8.40;99.90
42339;DHT22;27993;45.392;10.918;2022-11-15T09:56:35;8.50;99.90
42339;DHT22;27993;45.392;10.918;2022-11-15T10:04:38;8.50;99.90
42339;DHT22;27993;45.392;10.918;2022-11-15T10:10:17;8.40;99.90
42339;DHT22;27993;45.392;10.918;2022-11-15T10:12:51;8.20;99.90
42339;DHT22;27993;45.392;10.918;2022-11-15T10:15:23;8.30;99.90
42339;DHT22;27993;45.392;10.918;2022-11-15T10:20:48;8.30;99.90
42339;DHT22;27993;45.392;10.918;2022-11-15T10:23:22;8.30;99.90
42339;DHT22;27993;45.392;10.918;2022-11-15T10:25:55;8.50;99.90
42339;DHT22;27993;45.392;10.918;2022-11-15T10:28:29;8.50;99.90
42339;DHT22;27993;45.392;10.918;2022-11-15T10:31:01;8.60;99.90
42339;DHT22;27993;45.392;10.918;2022-11-15T10:38:55;8.60;99.90
42339;DHT22;27993;45.392;10.918;2022-11-15T10:49:30;8.70;99.90
42339;DHT22;27993;45.392;10.918;2022-11-15T10:52:18;8.90;99.90
42339;DHT22;27993;45.392;10.918;2022-11-15T10:55:03;9.00;99.90
42339;DHT22;27993;45.392;10.918;2022-11-15T10:57:39;9.10;99.90
42339;DHT22;27993;45.392;10.918;2022-11-15T11:10:52;9.20;99.90
42339;DHT22;27993;45.392;10.918;2022-11-15T11:13:28;9.20;99.90
42339;DHT22;27993;45.392;10.918;2022-11-15T11:16:20;9.30;99.90
42339;DHT22;27993;45.392;10.918;2022-11-15T11:24:30;9.40;99.90
42339;DHT22;27993;45.392;10.918;2022-11-15T11:30:03;9.50;99.90
42339;DHT22;27993;45.392;10.918;2022-11-15T11:38:19;9.30;99.90
42339;DHT22;27993;45.392;10.918;2022-11-15T11:46:31;9.30;99.90
42339;DHT22;27993;45.392;10.918;2022-11-15T11:49:14;9.20;99.90
42339;DHT22;27993;45.392;10.918;2022-11-15T11:54:50;9.30;99.90
42339;DHT22;27993;45.392;10.918;2022-11-15T12:00:30;9.30;99.90
42339;DHT22;27993;45.392;10.918;2022-11-15T12:05:51;9.30;99.90
42339;DHT22;27993;45.392;10.918;2022-11-15T12:08:31;9.40;99.90
42339;DHT22;27993;45.392;10.918;2022-11-15T12:14:01;9.50;99.90
42339;DHT22;27993;45.392;10.918;2022-11-15T12:16:33;9.60;99.90
42339;DHT22;27993;45.392;10.918;2022-11-15T12:19:04;9.60;99.90
42339;DHT22;27993;45.392;10.918;2022-11-15T12:22:12;9.60;99.90
42339;DHT22;27993;45.392;10.918;2022-11-15T12:30:12;9.50;99.90
42339;DHT22;27993;45.392;10.918;2022-11-15T12:32:50;9.60;99.90
42339;DHT22;27993;45.392;10.918;2022-11-15T12:35:41;9.50;99.90
42339;DHT22;27993;45.392;10.918;2022-11-15T12:38:12;9.60;99.90
42339;DHT22;27993;45.392;10.918;2022-11-15T12:41:14;9.60;99.90
42339;DHT22;27993;45.392;10.918;2022-11-15T12:43:47;9.60;99.90
42339;DHT22;27993;45.392;10.918;2022-11-15T12:59:56;9.80;99.90
42339;DHT22;27993;45.392;10.918;2022-11-15T13:02:40;9.80;99.90
42339;DHT22;27993;45.392;10.918;2022-11-15T13:07:57;9.80;99.90
42339;DHT22;27993;45.392;10.918;2022-11-15T13:10:34;9.90;99.90
42339;DHT22;27993;45.392;10.918;2022-11-15T13:13:08;9.90;99.90
42339;DHT22;27993;45.392;10.918;2022-11-15T13:15:58;9.90;99.90
42339;DHT22;27993;45.392;10.918;2022-11-15T13:18:35;9.90;99.90
42339;DHT22;27993;45.392;10.918;2022-11-15T13:21:23;9.90;99.90
42339;DHT22;27993;45.392;10.918;2022-11-15T13:24:15;10.00;99.90
42339;DHT22;27993;45.392;10.918;2022-11-15T13:26:46;9.90;99.90
42339;DHT22;27993;45.392;10.918;2022-11-15T13:29:18;10.00;99.90
42339;DHT22;27993;45.392;10.918;2022-11-15T13:31:50;9.90;99.90
42339;DHT22;27993;45.392;10.918;2022-11-15T13:34:34;10.00;99.90
42339;DHT22;27993;45.392;10.918;2022-11-15T13:39:52;9.90;99.90
42339;DHT22;27993;45.392;10.918;2022-11-15T13:42:28;9.90;99.90
42339;DHT22;27993;45.392;10.918;2022-11-15T13:45:00;10.10;99.90
42339;DHT22;27993;45.392;10.918;2022-11-15T13:47:31;10.10;99.90
42339;DHT22;27993;45.392;10.918;2022-11-15T13:50:02;10.10;99.90
42339;DHT22;27993;45.392;10.918;2022-11-15T13:52:36;10.10;99.90
42339;DHT22;27993;45.392;10.918;2022-11-15T13:55:14;10.10;99.90
42339;DHT22;27993;45.392;10.918;2022-11-15T13:57:53;10.00;99.90
42339;DHT22;27993;45.392;10.918;2022-11-15T14:00:43;10.10;99.90
42339;DHT22;27993;45.392;10.918;2022-11-15T14:06:12;10.10;99.90
42339;DHT22;27993;45.392;10.918;2022-11-15T14:11:53;10.00;99.90
42339;DHT22;27993;45.392;10.918;2022-11-15T14:14:26;10.10;99.90
42339;DHT22;27993;45.392;10.918;2022-11-15T14:16:59;10.10;99.90
42339;DHT22;27993;45.392;10.918;2022-11-15T14:24:47;10.10;99.90
42339;DHT22;27993;45.392;10.918;2022-11-15T14:27:34;10.10;99.90
42339;DHT22;27993;45.392;10.918;2022-11-15T14:30:05;10.20;99.90
42339;DHT22;27993;45.392;10.918;2022-11-15T14:35:16;10.20;99.90
42339;DHT22;27993;45.392;10.918;2022-11-15T14:37:48;10.20;99.90
42339;DHT22;27993;45.392;10.918;2022-11-15T14:40:20;10.20;99.90
42339;DHT22;27993;45.392;10.918;2022-11-15T14:42:51;10.20;99.90
42339;DHT22;27993;45.392;10.918;2022-11-15T14:45:22;10.20;99.90
42339;DHT22;27993;45.392;10.918;2022-11-15T14:47:52;10.20;99.90
42339;DHT22;27993;45.392;10.918;2022-11-15T14:50:23;10.10;99.90
42339;DHT22;27993;45.392;10.918;2022-11-15T14:52:54;10.10;99.90
42339;DHT22;27993;45.392;10.918;2022-11-15T14:55:30;10.10;99.90
42339;DHT22;27993;45.392;10.918;2022-11-15T14:58:03;10.10;99.90
42339;DHT22;27993;45.392;10.918;2022-11-15T15:00:39;10.10;99.90
42339;DHT22;27993;45.392;10.918;2022-11-15T15:03:10;10.20;99.90
42339;DHT22;27993;45.392;10.918;2022-11-15T15:05:43;10.20;99.90
42339;DHT22;27993;45.392;10.918;2022-11-15T15:08:14;10.20;99.90
42339;DHT22;27993;45.392;10.918;2022-11-15T15:10:45;10.10;99.90
42339;DHT22;27993;45.392;10.918;2022-11-15T15:13:23;10.10;99.90
42339;DHT22;27993;45.392;10.918;2022-11-15T15:15:54;10.00;99.90
42339;DHT22;27993;45.392;10.918;2022-11-15T15:18:27;10.00;99.90
42339;DHT22;27993;45.392;10.918;2022-11-15T15:20:59;10.00;99.90
42339;DHT22;27993;45.392;10.918;2022-11-15T15:23:33;10.00;99.90
42339;DHT22;27993;45.392;10.918;2022-11-15T15:26:07;9.90;99.90
42339;DHT22;27993;45.392;10.918;2022-11-15T15:28:41;9.90;99.90
42339;DHT22;27993;45.392;10.918;2022-11-15T15:31:12;9.90;99.90
42339;DHT22;27993;45.392;10.918;2022-11-15T15:33:43;9.90;99.90
42339;DHT22;27993;45.392;10.918;2022-11-15T15:36:17;10.00;99.90
42339;DHT22;27993;45.392;10.918;2022-11-15T15:38:48;10.10;99.90
42339;DHT22;27993;45.392;10.918;2022-11-15T15:41:18;10.10;99.90
42339;DHT22;27993;45.392;10.918;2022-11-15T15:43:49;10.00;99.90
42339;DHT22;27993;45.392;10.918;2022-11-15T15:46:20;10.00;99.90
42339;DHT22;27993;45.392;10.918;2022-11-15T15:48:51;10.00;99.90
42339;DHT22;27993;45.392;10.918;2022-11-15T15:51:21;10.00;99.90
42339;DHT22;27993;45.392;10.918;2022-11-15T15:53:52;10.00;99.90
42339;DHT22;27993;45.392;10.918;2022-11-15T15:56:27;9.90;99.90
42339;DHT22;27993;45.392;10.918;2022-11-15T15:58:58;9.90;99.90
42339;DHT22;27993;45.392;10.918;2022-11-15T16:01:29;9.90;99.90
42339;DHT22;27993;45.392;10.918;2022-11-15T16:03:59;9.90;99.90
42339;DHT22;27993;45.392;10.918;2022-11-15T16:06:39;9.90;99.90
42339;DHT22;27993;45.392;10.918;2022-11-15T16:09:17;9.90;99.90
42339;DHT22;27993;45.392;10.918;2022-11-15T16:11:47;10.00;99.90
42339;DHT22;27993;45.392;10.918;2022-11-15T16:14:18;10.00;99.90
42339;DHT22;27993;45.392;10.918;2022-11-15T16:16:49;10.00;99.90
42339;DHT22;27993;45.392;10.918;2022-11-15T16:19:19;10.10;99.90
42339;DHT22;27993;45.392;10.918;2022-11-15T16:21:50;10.10;99.90
42339;DHT22;27993;45.392;10.918;2022-11-15T16:24:22;10.00;99.90
42339;DHT22;27993;45.392;10.918;2022-11-15T16:26:55;10.00;99.90
42339;DHT22;27993;45.392;10.918;2022-11-15T16:29:26;10.00;99.90
42339;DHT22;27993;45.392;10.918;2022-11-15T16:31:57;10.00;99.90
42339;DHT22;27993;45.392;10.918;2022-11-15T16:34:27;9.90;99.90
42339;DHT22;27993;45.392;10.918;2022-11-15T16:36:59;10.00;99.90
42339;DHT22;27993;45.392;10.918;2022-11-15T16:39:29;9.90;99.90
42339;DHT22;27993;45.392;10.918;2022-11-15T16:42:00;9.80;99.90
42339;DHT22;27993;45.392;10.918;2022-11-15T16:44:32;9.80;99.90
42339;DHT22;27993;45.392;10.918;2022-11-15T16:47:03;9.80;99.90
42339;DHT22;27993;45.392;10.918;2022-11-15T16:49:34;9.80;99.90
42339;DHT22;27993;45.392;10.918;2022-11-15T16:52:04;9.80;99.90
42339;DHT22;27993;45.392;10.918;2022-11-15T16:54:35;9.70;99.90
42339;DHT22;27993;45.392;10.918;2022-11-15T16:57:09;9.70;99.90
42339;DHT22;27993;45.392;10.918;2022-11-15T16:59:40;9.80;99.90
42339;DHT22;27993;45.392;10.918;2022-11-15T17:02:13;9.80;99.90
42339;DHT22;27993;45.392;10.918;2022-11-15T17:04:45;9.80;99.90
42339;DHT22;27993;45.392;10.918;2022-11-15T17:07:15;9.80;99.90
42339;DHT22;27993;45.392;10.918;2022-11-15T17:09:46;9.80;99.90
42339;DHT22;27993;45.392;10.918;2022-11-15T17:12:17;9.80;99.90
42339;DHT22;27993;45.392;10.918;2022-11-15T17:14:47;9.80;99.90
42339;DHT22;27993;45.392;10.918;2022-11-15T17:17:18;9.80;99.90
42339;DHT22;27993;45.392;10.918;2022-11-15T17:19:49;9.80;99.90
42339;DHT22;27993;45.392;10.918;2022-11-15T17:22:20;9.80;99.90
42339;DHT22;27993;45.392;10.918;2022-11-15T17:24:50;9.70;99.90
42339;DHT22;27993;45.392;10.918;2022-11-15T17:27:21;9.70;99.90
42339;DHT22;27993;45.392;10.918;2022-11-15T17:29:53;9.70;99.90
42339;DHT22;27993;45.392;10.918;2022-11-15T17:32:23;9.80;99.90
42339;DHT22;27993;45.392;10.918;2022-11-15T17:34:54;9.80;99.90
42339;DHT22;27993;45.392;10.918;2022-11-15T17:37:24;9.80;99.90
42339;DHT22;27993;45.392;10.918;2022-11-15T17:39:55;9.80;99.90
42339;DHT22;27993;45.392;10.918;2022-11-15T17:42:26;9.80;99.90
42339;DHT22;27993;45.392;10.918;2022-11-15T17:44:56;9.80;99.90
42339;DHT22;27993;45.392;10.918;2022-11-15T17:47:27;9.80;99.90
42339;DHT22;27993;45.392;10.918;2022-11-15T17:49:58;9.70;99.90
42339;DHT22;27993;45.392;10.918;2022-11-15T17:52:28;9.80;99.90
42339;DHT22;27993;45.392;10.918;2022-11-15T17:54:59;9.80;99.90
42339;DHT22;27993;45.392;10.918;2022-11-15T17:57:30;9.80;99.90
42339;DHT22;27993;45.392;10.918;2022-11-15T18:00:00;9.80;99.90
42339;DHT22;27993;45.392;10.918;2022-11-15T18:02:31;9.70;99.90
42339;DHT22;27993;45.392;10.918;2022-11-15T18:05:02;9.70;99.90
42339;DHT22;27993;45.392;10.918;2022-11-15T18:07:32;9.80;99.90
42339;DHT22;27993;45.392;10.918;2022-11-15T18:10:03;9.80;99.90
42339;DHT22;27993;45.392;10.918;2022-11-15T18:12:34;9.90;99.90
42339;DHT22;27993;45.392;10.918;2022-11-15T18:15:05;9.70;99.90
42339;DHT22;27993;45.392;10.918;2022-11-15T18:17:36;9.70;99.90
42339;DHT22;27993;45.392;10.918;2022-11-15T18:20:07;9.60;99.90
42339;DHT22;27993;45.392;10.918;2022-11-15T18:22:38;9.60;99.90
42339;DHT22;27993;45.392;10.918;2022-11-15T18:25:08;9.70;99.90
42339;DHT22;27993;45.392;10.918;2022-11-15T18:27:39;9.70;99.90
42339;DHT22;27993;45.392;10.918;2022-11-15T18:30:10;9.80;99.90
42339;DHT22;27993;45.392;10.918;2022-11-15T18:32:41;9.80;99.90